Aeroporto :
LOGIN :

Iscrizione | Disclaimer

   EN    FR    IT 

 










Sommario :    VFR   VFR Marginale   IFR   IFR Intensivo   IFR Molto Intensivo
Visibilità : 
Base nubi : 
>= 8 km
>= 3000ft
5 / 8 km
1000 / 3000 ft
1500m / 5 km
500 / 1000 ft
800 / 1500m
200 / 500 ft
< 800m
< 200 ft
Simboli :   Temporali  Nebbia  Neve Forte  Precipitazioni Forti  Vento > 20 kt
SIGMETs :   Varie  Temporali  Ghiacco  Turbolenza  Onda orograficha  Ceneri Vulcaniche






- Altitudine del aeroporto : 433 ft
- Codice IATA : CCF


LFMK - Carcassonne

ULTIMO METAR :
  • 190530Z AUTO 26008KT 210V290 9999 //////TCU 23/19 Q1019 BECMG NSC

METARs OBSOLETI :
  • 190500Z AUTO 28009KT CAVOK 23/19 Q1019 NOSIG
  • 190430Z AUTO 27008KT 230V300 CAVOK 23/16 Q1019 NOSIG
  • 190400Z AUTO 27006KT 230V320 CAVOK 23/15 Q1018 NOSIG
  • 190330Z AUTO VRB03KT CAVOK 21/16 Q1018 NOSIG
  • 190300Z AUTO 27002KT CAVOK 20/16 Q1018
  • 190230Z AUTO 00000KT CAVOK 20/16 Q1017
  • 190200Z AUTO VRB02KT CAVOK 20/15 Q1017
  • 190130Z AUTO VRB01KT CAVOK 20/15 Q1017
  • 190100Z AUTO VRB02KT CAVOK 21/14 Q1017

TAF TAF LFMK
Valido dal 19 a 03 ore il 20 a 03 ore UTC


190200Z 1903/2003 VRB03KT CAVOK
TEMPO 1915/1920 28010KT



MetMap, La meteo Aeronautica in un colpo d'occhio ! - Copyright ORBIFLY Dicembre 2007 - Disclaimer

ORBIFLY MET'MAP TEAM :

Programmazione e sviluppo : Alexandra Zaïnal
Concezione : Baudouin d'Aumeries
Supporto tecnico e logistico : Manuel Goepfert
Aiuto : Marc-Olivier Méhu
Aiuto per la traduzione : Arnaldo La Scala




FONTI E CREDITI :

   NOAA